sensor_id;sensor_type;location;lat;lon;timestamp;P1;durP1;ratioP1;P2;durP2;ratioP2
5085;SDS011;4715;51.660;7.082;2024-03-08T00:01:13;17.77;;;14.30;;
5085;SDS011;4715;51.660;7.082;2024-03-08T00:03:36;21.30;;;14.70;;
5085;SDS011;4715;51.660;7.082;2024-03-08T00:06:02;22.10;;;13.47;;
5085;SDS011;4715;51.660;7.082;2024-03-08T00:08:27;21.20;;;13.80;;
5085;SDS011;4715;51.660;7.082;2024-03-08T00:10:51;18.13;;;12.90;;
5085;SDS011;4715;51.660;7.082;2024-03-08T00:13:12;17.77;;;13.53;;
5085;SDS011;4715;51.660;7.082;2024-03-08T00:15:34;16.40;;;12.60;;
5085;SDS011;4715;51.660;7.082;2024-03-08T00:17:59;19.20;;;12.70;;
5085;SDS011;4715;51.660;7.082;2024-03-08T00:20:21;18.37;;;12.47;;
5085;SDS011;4715;51.660;7.082;2024-03-08T00:22:44;16.37;;;13.07;;
5085;SDS011;4715;51.660;7.082;2024-03-08T00:25:07;20.20;;;15.00;;
5085;SDS011;4715;51.660;7.082;2024-03-08T00:27:29;18.07;;;16.00;;
5085;SDS011;4715;51.660;7.082;2024-03-08T00:29:52;22.53;;;14.17;;
5085;SDS011;4715;51.660;7.082;2024-03-08T00:32:18;19.73;;;14.00;;
5085;SDS011;4715;51.660;7.082;2024-03-08T00:34:41;23.47;;;16.40;;
5085;SDS011;4715;51.660;7.082;2024-03-08T00:37:03;23.93;;;16.70;;
5085;SDS011;4715;51.660;7.082;2024-03-08T00:39:26;22.80;;;15.27;;
5085;SDS011;4715;51.660;7.082;2024-03-08T00:41:51;19.87;;;15.00;;
5085;SDS011;4715;51.660;7.082;2024-03-08T00:44:17;20.70;;;15.03;;
5085;SDS011;4715;51.660;7.082;2024-03-08T00:46:38;19.87;;;14.63;;
5085;SDS011;4715;51.660;7.082;2024-03-08T00:49:00;21.90;;;15.67;;
5085;SDS011;4715;51.660;7.082;2024-03-08T00:51:22;20.60;;;13.70;;
5085;SDS011;4715;51.660;7.082;2024-03-08T00:53:44;19.70;;;14.50;;
5085;SDS011;4715;51.660;7.082;2024-03-08T00:56:08;22.80;;;14.67;;
5085;SDS011;4715;51.660;7.082;2024-03-08T00:58:32;19.10;;;15.30;;
5085;SDS011;4715;51.660;7.082;2024-03-08T01:00:54;20.23;;;14.70;;
5085;SDS011;4715;51.660;7.082;2024-03-08T01:03:17;20.70;;;14.47;;
5085;SDS011;4715;51.660;7.082;2024-03-08T01:05:39;26.10;;;16.47;;
5085;SDS011;4715;51.660;7.082;2024-03-08T01:08:01;20.10;;;15.47;;
5085;SDS011;4715;51.660;7.082;2024-03-08T01:10:25;21.80;;;15.23;;
5085;SDS011;4715;51.660;7.082;2024-03-08T01:12:49;21.70;;;15.40;;
5085;SDS011;4715;51.660;7.082;2024-03-08T01:15:14;24.00;;;15.87;;
5085;SDS011;4715;51.660;7.082;2024-03-08T01:17:36;19.47;;;14.47;;
5085;SDS011;4715;51.660;7.082;2024-03-08T01:19:58;22.37;;;15.83;;
5085;SDS011;4715;51.660;7.082;2024-03-08T01:22:32;23.37;;;16.40;;
5085;SDS011;4715;51.660;7.082;2024-03-08T01:24:54;20.83;;;14.57;;
5085;SDS011;4715;51.660;7.082;2024-03-08T01:27:16;23.90;;;16.13;;
5085;SDS011;4715;51.660;7.082;2024-03-08T01:29:39;24.87;;;15.80;;
5085;SDS011;4715;51.660;7.082;2024-03-08T01:32:01;25.20;;;17.63;;
5085;SDS011;4715;51.660;7.082;2024-03-08T01:34:25;23.23;;;16.60;;
5085;SDS011;4715;51.660;7.082;2024-03-08T01:36:48;24.60;;;14.90;;
5085;SDS011;4715;51.660;7.082;2024-03-08T01:39:10;22.53;;;16.20;;
5085;SDS011;4715;51.660;7.082;2024-03-08T01:41:32;22.27;;;16.70;;
5085;SDS011;4715;51.660;7.082;2024-03-08T01:43:54;18.13;;;13.47;;
5085;SDS011;4715;51.660;7.082;2024-03-08T01:46:17;22.97;;;15.83;;
5085;SDS011;4715;51.660;7.082;2024-03-08T01:48:42;25.90;;;16.20;;
5085;SDS011;4715;51.660;7.082;2024-03-08T01:51:04;22.07;;;15.10;;
5085;SDS011;4715;51.660;7.082;2024-03-08T01:53:26;20.93;;;14.97;;
5085;SDS011;4715;51.660;7.082;2024-03-08T01:55:51;22.13;;;15.10;;
5085;SDS011;4715;51.660;7.082;2024-03-08T01:58:16;19.67;;;13.60;;
5085;SDS011;4715;51.660;7.082;2024-03-08T02:00:42;19.87;;;15.43;;
5085;SDS011;4715;51.660;7.082;2024-03-08T02:03:07;21.20;;;14.40;;
5085;SDS011;4715;51.660;7.082;2024-03-08T02:05:29;24.13;;;16.77;;
5085;SDS011;4715;51.660;7.082;2024-03-08T02:07:51;22.40;;;15.40;;
5085;SDS011;4715;51.660;7.082;2024-03-08T02:10:13;23.53;;;15.33;;
5085;SDS011;4715;51.660;7.082;2024-03-08T02:12:34;25.50;;;16.33;;
5085;SDS011;4715;51.660;7.082;2024-03-08T02:14:58;24.67;;;15.30;;
5085;SDS011;4715;51.660;7.082;2024-03-08T02:17:20;25.37;;;15.67;;
5085;SDS011;4715;51.660;7.082;2024-03-08T02:19:46;23.80;;;15.80;;
5085;SDS011;4715;51.660;7.082;2024-03-08T02:22:11;24.70;;;18.03;;
5085;SDS011;4715;51.660;7.082;2024-03-08T02:24:33;25.53;;;16.80;;
5085;SDS011;4715;51.660;7.082;2024-03-08T02:26:55;27.63;;;17.50;;
5085;SDS011;4715;51.660;7.082;2024-03-08T02:29:18;30.23;;;17.70;;
5085;SDS011;4715;51.660;7.082;2024-03-08T02:31:41;22.67;;;15.30;;
5085;SDS011;4715;51.660;7.082;2024-03-08T02:34:03;20.83;;;15.50;;
5085;SDS011;4715;51.660;7.082;2024-03-08T02:36:25;25.17;;;17.50;;
5085;SDS011;4715;51.660;7.082;2024-03-08T02:38:48;23.23;;;15.10;;
5085;SDS011;4715;51.660;7.082;2024-03-08T02:41:11;27.77;;;17.27;;
5085;SDS011;4715;51.660;7.082;2024-03-08T02:43:33;23.77;;;15.73;;
5085;SDS011;4715;51.660;7.082;2024-03-08T02:45:55;23.30;;;15.60;;
5085;SDS011;4715;51.660;7.082;2024-03-08T02:48:19;26.47;;;17.43;;
5085;SDS011;4715;51.660;7.082;2024-03-08T02:50:42;26.53;;;16.20;;
5085;SDS011;4715;51.660;7.082;2024-03-08T02:53:04;26.50;;;17.03;;
5085;SDS011;4715;51.660;7.082;2024-03-08T02:55:27;23.77;;;17.00;;
5085;SDS011;4715;51.660;7.082;2024-03-08T02:57:49;24.57;;;15.60;;
5085;SDS011;4715;51.660;7.082;2024-03-08T03:00:11;26.87;;;16.90;;
5085;SDS011;4715;51.660;7.082;2024-03-08T03:02:34;26.53;;;18.03;;
5085;SDS011;4715;51.660;7.082;2024-03-08T03:04:55;21.93;;;15.83;;
5085;SDS011;4715;51.660;7.082;2024-03-08T03:07:18;23.13;;;15.70;;
5085;SDS011;4715;51.660;7.082;2024-03-08T03:09:40;28.00;;;17.60;;
5085;SDS011;4715;51.660;7.082;2024-03-08T03:12:04;25.87;;;16.87;;
5085;SDS011;4715;51.660;7.082;2024-03-08T03:14:29;22.53;;;15.23;;
5085;SDS011;4715;51.660;7.082;2024-03-08T03:16:50;28.07;;;16.30;;
5085;SDS011;4715;51.660;7.082;2024-03-08T03:19:12;26.00;;;15.97;;
5085;SDS011;4715;51.660;7.082;2024-03-08T03:21:36;24.00;;;16.10;;
5085;SDS011;4715;51.660;7.082;2024-03-08T03:23:58;25.00;;;15.93;;
5085;SDS011;4715;51.660;7.082;2024-03-08T03:26:21;25.40;;;16.57;;
5085;SDS011;4715;51.660;7.082;2024-03-08T03:28:44;25.60;;;16.13;;
5085;SDS011;4715;51.660;7.082;2024-03-08T03:31:06;25.10;;;16.57;;
5085;SDS011;4715;51.660;7.082;2024-03-08T03:33:30;26.87;;;17.43;;
5085;SDS011;4715;51.660;7.082;2024-03-08T03:35:54;24.20;;;15.03;;
5085;SDS011;4715;51.660;7.082;2024-03-08T03:38:16;23.93;;;15.97;;
5085;SDS011;4715;51.660;7.082;2024-03-08T03:40:38;25.93;;;16.03;;
5085;SDS011;4715;51.660;7.082;2024-03-08T03:43:01;32.80;;;17.03;;
5085;SDS011;4715;51.660;7.082;2024-03-08T03:45:28;24.20;;;16.33;;
5085;SDS011;4715;51.660;7.082;2024-03-08T03:47:53;25.90;;;16.70;;
5085;SDS011;4715;51.660;7.082;2024-03-08T03:50:15;24.93;;;16.10;;
5085;SDS011;4715;51.660;7.082;2024-03-08T03:52:39;26.23;;;18.13;;
5085;SDS011;4715;51.660;7.082;2024-03-08T03:55:02;25.10;;;16.40;;
5085;SDS011;4715;51.660;7.082;2024-03-08T03:57:24;24.67;;;16.77;;
5085;SDS011;4715;51.660;7.082;2024-03-08T03:59:46;21.03;;;15.40;;
5085;SDS011;4715;51.660;7.082;2024-03-08T04:02:10;23.47;;;15.50;;
5085;SDS011;4715;51.660;7.082;2024-03-08T04:04:31;28.50;;;17.40;;
5085;SDS011;4715;51.660;7.082;2024-03-08T04:06:53;23.53;;;16.70;;
5085;SDS011;4715;51.660;7.082;2024-03-08T04:09:15;25.13;;;17.17;;
5085;SDS011;4715;51.660;7.082;2024-03-08T04:11:39;24.20;;;16.20;;
5085;SDS011;4715;51.660;7.082;2024-03-08T04:14:01;22.93;;;15.73;;
5085;SDS011;4715;51.660;7.082;2024-03-08T04:16:22;27.77;;;15.93;;
5085;SDS011;4715;51.660;7.082;2024-03-08T04:18:47;21.57;;;15.60;;
5085;SDS011;4715;51.660;7.082;2024-03-08T04:21:09;26.30;;;16.63;;
5085;SDS011;4715;51.660;7.082;2024-03-08T04:23:31;23.10;;;16.13;;
5085;SDS011;4715;51.660;7.082;2024-03-08T04:25:53;28.10;;;16.73;;
5085;SDS011;4715;51.660;7.082;2024-03-08T04:28:15;31.63;;;16.77;;
5085;SDS011;4715;51.660;7.082;2024-03-08T04:30:37;26.00;;;17.00;;
5085;SDS011;4715;51.660;7.082;2024-03-08T04:33:01;28.80;;;16.97;;
5085;SDS011;4715;51.660;7.082;2024-03-08T04:35:25;31.20;;;19.23;;
5085;SDS011;4715;51.660;7.082;2024-03-08T04:37:47;28.97;;;17.00;;
5085;SDS011;4715;51.660;7.082;2024-03-08T04:40:09;25.73;;;16.30;;
5085;SDS011;4715;51.660;7.082;2024-03-08T04:42:32;22.50;;;15.47;;
5085;SDS011;4715;51.660;7.082;2024-03-08T04:44:54;22.87;;;15.13;;
5085;SDS011;4715;51.660;7.082;2024-03-08T04:47:16;25.80;;;17.17;;
5085;SDS011;4715;51.660;7.082;2024-03-08T04:49:39;25.40;;;16.57;;
5085;SDS011;4715;51.660;7.082;2024-03-08T04:52:04;23.43;;;15.50;;
5085;SDS011;4715;51.660;7.082;2024-03-08T04:54:26;20.80;;;14.83;;
5085;SDS011;4715;51.660;7.082;2024-03-08T04:56:48;26.53;;;17.73;;
5085;SDS011;4715;51.660;7.082;2024-03-08T04:59:10;22.67;;;14.90;;
5085;SDS011;4715;51.660;7.082;2024-03-08T05:01:33;23.53;;;15.43;;
5085;SDS011;4715;51.660;7.082;2024-03-08T05:03:56;27.67;;;15.30;;
5085;SDS011;4715;51.660;7.082;2024-03-08T05:06:18;25.67;;;15.43;;
5085;SDS011;4715;51.660;7.082;2024-03-08T05:08:45;27.43;;;17.30;;
5085;SDS011;4715;51.660;7.082;2024-03-08T05:11:07;24.50;;;16.53;;
5085;SDS011;4715;51.660;7.082;2024-03-08T05:13:29;22.83;;;16.70;;
5085;SDS011;4715;51.660;7.082;2024-03-08T05:15:51;26.10;;;17.37;;
5085;SDS011;4715;51.660;7.082;2024-03-08T05:18:14;26.73;;;16.47;;
5085;SDS011;4715;51.660;7.082;2024-03-08T05:20:35;27.47;;;17.40;;
5085;SDS011;4715;51.660;7.082;2024-03-08T05:22:57;22.90;;;14.63;;
5085;SDS011;4715;51.660;7.082;2024-03-08T05:25:21;25.90;;;16.90;;
5085;SDS011;4715;51.660;7.082;2024-03-08T05:27:43;26.10;;;16.07;;
5085;SDS011;4715;51.660;7.082;2024-03-08T05:30:07;24.53;;;15.90;;
5085;SDS011;4715;51.660;7.082;2024-03-08T05:32:34;24.37;;;16.80;;
5085;SDS011;4715;51.660;7.082;2024-03-08T05:34:58;24.03;;;16.30;;
5085;SDS011;4715;51.660;7.082;2024-03-08T05:37:20;27.90;;;17.30;;
5085;SDS011;4715;51.660;7.082;2024-03-08T05:39:42;26.47;;;17.90;;
5085;SDS011;4715;51.660;7.082;2024-03-08T05:42:06;25.67;;;16.80;;
5085;SDS011;4715;51.660;7.082;2024-03-08T05:44:29;28.60;;;17.73;;
5085;SDS011;4715;51.660;7.082;2024-03-08T05:46:51;25.47;;;17.00;;
5085;SDS011;4715;51.660;7.082;2024-03-08T05:49:13;25.13;;;16.30;;
5085;SDS011;4715;51.660;7.082;2024-03-08T05:51:35;28.80;;;18.77;;
5085;SDS011;4715;51.660;7.082;2024-03-08T05:53:59;26.73;;;16.97;;
5085;SDS011;4715;51.660;7.082;2024-03-08T05:56:22;25.43;;;17.77;;
5085;SDS011;4715;51.660;7.082;2024-03-08T05:58:45;25.97;;;18.87;;
5085;SDS011;4715;51.660;7.082;2024-03-08T06:01:09;26.60;;;17.17;;
5085;SDS011;4715;51.660;7.082;2024-03-08T06:03:32;25.97;;;18.03;;
5085;SDS011;4715;51.660;7.082;2024-03-08T06:05:54;26.07;;;16.67;;
5085;SDS011;4715;51.660;7.082;2024-03-08T06:08:16;26.73;;;16.87;;
5085;SDS011;4715;51.660;7.082;2024-03-08T06:10:38;26.40;;;17.20;;
5085;SDS011;4715;51.660;7.082;2024-03-08T06:13:00;22.80;;;15.87;;
5085;SDS011;4715;51.660;7.082;2024-03-08T06:15:24;29.80;;;18.77;;
5085;SDS011;4715;51.660;7.082;2024-03-08T06:17:46;30.27;;;18.90;;
5085;SDS011;4715;51.660;7.082;2024-03-08T06:20:08;29.20;;;17.83;;
5085;SDS011;4715;51.660;7.082;2024-03-08T06:22:33;29.90;;;17.10;;
5085;SDS011;4715;51.660;7.082;2024-03-08T06:24:55;32.23;;;18.47;;
5085;SDS011;4715;51.660;7.082;2024-03-08T06:27:17;34.70;;;19.83;;
5085;SDS011;4715;51.660;7.082;2024-03-08T06:29:39;36.80;;;17.63;;
5085;SDS011;4715;51.660;7.082;2024-03-08T06:32:03;27.73;;;18.00;;
5085;SDS011;4715;51.660;7.082;2024-03-08T06:34:25;30.67;;;20.07;;
5085;SDS011;4715;51.660;7.082;2024-03-08T06:36:47;31.00;;;18.90;;
5085;SDS011;4715;51.660;7.082;2024-03-08T06:39:09;27.13;;;17.97;;
5085;SDS011;4715;51.660;7.082;2024-03-08T06:41:31;29.40;;;18.63;;
5085;SDS011;4715;51.660;7.082;2024-03-08T06:43:53;34.57;;;21.53;;
5085;SDS011;4715;51.660;7.082;2024-03-08T06:46:17;31.97;;;21.07;;
5085;SDS011;4715;51.660;7.082;2024-03-08T06:48:42;32.00;;;18.97;;
5085;SDS011;4715;51.660;7.082;2024-03-08T06:51:04;33.73;;;20.00;;
5085;SDS011;4715;51.660;7.082;2024-03-08T06:53:26;32.10;;;19.97;;
5085;SDS011;4715;51.660;7.082;2024-03-08T06:55:47;30.20;;;19.67;;
5085;SDS011;4715;51.660;7.082;2024-03-08T06:58:10;30.50;;;20.23;;
5085;SDS011;4715;51.660;7.082;2024-03-08T07:00:32;27.13;;;17.47;;
5085;SDS011;4715;51.660;7.082;2024-03-08T07:02:54;26.87;;;17.80;;
5085;SDS011;4715;51.660;7.082;2024-03-08T07:05:19;30.53;;;18.50;;
5085;SDS011;4715;51.660;7.082;2024-03-08T07:07:41;30.40;;;18.87;;
5085;SDS011;4715;51.660;7.082;2024-03-08T07:10:03;31.93;;;21.53;;
5085;SDS011;4715;51.660;7.082;2024-03-08T07:12:26;29.73;;;18.23;;
5085;SDS011;4715;51.660;7.082;2024-03-08T07:14:47;30.67;;;19.00;;
5085;SDS011;4715;51.660;7.082;2024-03-08T07:17:09;36.07;;;20.17;;
5085;SDS011;4715;51.660;7.082;2024-03-08T07:19:31;33.80;;;19.83;;
5085;SDS011;4715;51.660;7.082;2024-03-08T07:21:55;30.10;;;19.30;;
5085;SDS011;4715;51.660;7.082;2024-03-08T07:24:16;33.30;;;18.60;;
5085;SDS011;4715;51.660;7.082;2024-03-08T07:26:59;28.83;;;18.70;;
5085;SDS011;4715;51.660;7.082;2024-03-08T07:29:21;29.40;;;18.90;;
5085;SDS011;4715;51.660;7.082;2024-03-08T07:31:43;33.70;;;20.53;;
5085;SDS011;4715;51.660;7.082;2024-03-08T07:34:10;31.57;;;19.00;;
5085;SDS011;4715;51.660;7.082;2024-03-08T07:36:33;29.43;;;20.13;;
5085;SDS011;4715;51.660;7.082;2024-03-08T07:38:56;24.73;;;16.93;;
5085;SDS011;4715;51.660;7.082;2024-03-08T07:41:18;24.90;;;17.80;;
5085;SDS011;4715;51.660;7.082;2024-03-08T07:43:40;27.07;;;17.83;;
5085;SDS011;4715;51.660;7.082;2024-03-08T07:46:03;30.90;;;18.60;;
5085;SDS011;4715;51.660;7.082;2024-03-08T07:48:25;27.60;;;16.40;;
5085;SDS011;4715;51.660;7.082;2024-03-08T07:50:52;28.00;;;19.90;;
5085;SDS011;4715;51.660;7.082;2024-03-08T07:53:17;30.63;;;18.87;;
5085;SDS011;4715;51.660;7.082;2024-03-08T07:55:40;27.77;;;17.97;;
5085;SDS011;4715;51.660;7.082;2024-03-08T07:58:04;25.67;;;17.20;;
5085;SDS011;4715;51.660;7.082;2024-03-08T08:00:28;28.13;;;17.80;;
5085;SDS011;4715;51.660;7.082;2024-03-08T08:02:51;29.00;;;18.80;;
5085;SDS011;4715;51.660;7.082;2024-03-08T08:05:13;25.60;;;18.27;;
5085;SDS011;4715;51.660;7.082;2024-03-08T08:07:35;29.20;;;18.80;;
5085;SDS011;4715;51.660;7.082;2024-03-08T08:09:56;37.10;;;19.57;;
5085;SDS011;4715;51.660;7.082;2024-03-08T08:12:19;31.90;;;18.87;;
5085;SDS011;4715;51.660;7.082;2024-03-08T08:14:41;31.03;;;20.07;;
5085;SDS011;4715;51.660;7.082;2024-03-08T08:17:03;30.20;;;19.90;;
5085;SDS011;4715;51.660;7.082;2024-03-08T08:19:25;29.37;;;19.10;;
5085;SDS011;4715;51.660;7.082;2024-03-08T08:21:47;30.47;;;19.90;;
5085;SDS011;4715;51.660;7.082;2024-03-08T08:24:10;26.17;;;17.33;;
5085;SDS011;4715;51.660;7.082;2024-03-08T08:26:32;28.23;;;19.50;;
5085;SDS011;4715;51.660;7.082;2024-03-08T08:28:56;32.43;;;18.00;;
5085;SDS011;4715;51.660;7.082;2024-03-08T08:31:20;37.10;;;20.30;;
5085;SDS011;4715;51.660;7.082;2024-03-08T08:33:41;31.83;;;19.57;;
5085;SDS011;4715;51.660;7.082;2024-03-08T08:36:04;29.83;;;19.37;;
5085;SDS011;4715;51.660;7.082;2024-03-08T08:38:31;26.80;;;18.20;;
5085;SDS011;4715;51.660;7.082;2024-03-08T08:40:53;28.80;;;18.43;;
5085;SDS011;4715;51.660;7.082;2024-03-08T08:43:16;25.20;;;16.67;;
5085;SDS011;4715;51.660;7.082;2024-03-08T08:45:43;26.33;;;17.43;;
5085;SDS011;4715;51.660;7.082;2024-03-08T08:48:07;23.90;;;16.20;;
5085;SDS011;4715;51.660;7.082;2024-03-08T08:50:30;28.33;;;17.30;;
5085;SDS011;4715;51.660;7.082;2024-03-08T08:52:52;28.60;;;18.50;;
5085;SDS011;4715;51.660;7.082;2024-03-08T08:55:21;25.50;;;17.90;;
5085;SDS011;4715;51.660;7.082;2024-03-08T08:57:45;24.77;;;17.43;;
5085;SDS011;4715;51.660;7.082;2024-03-08T09:00:08;28.67;;;18.07;;
5085;SDS011;4715;51.660;7.082;2024-03-08T09:02:36;29.33;;;18.57;;
5085;SDS011;4715;51.660;7.082;2024-03-08T09:04:59;29.33;;;17.63;;
5085;SDS011;4715;51.660;7.082;2024-03-08T09:07:21;26.90;;;17.90;;
5085;SDS011;4715;51.660;7.082;2024-03-08T09:09:44;27.97;;;17.40;;
5085;SDS011;4715;51.660;7.082;2024-03-08T09:12:07;28.50;;;18.13;;
5085;SDS011;4715;51.660;7.082;2024-03-08T09:14:31;27.07;;;17.53;;
5085;SDS011;4715;51.660;7.082;2024-03-08T09:16:53;22.40;;;16.13;;
5085;SDS011;4715;51.660;7.082;2024-03-08T09:19:16;25.80;;;16.80;;
5085;SDS011;4715;51.660;7.082;2024-03-08T09:21:39;28.47;;;18.70;;
5085;SDS011;4715;51.660;7.082;2024-03-08T09:24:07;25.40;;;18.30;;
5085;SDS011;4715;51.660;7.082;2024-03-08T09:26:29;23.27;;;16.13;;
5085;SDS011;4715;51.660;7.082;2024-03-08T09:28:53;26.40;;;17.67;;
5085;SDS011;4715;51.660;7.082;2024-03-08T09:31:15;30.57;;;19.50;;
5085;SDS011;4715;51.660;7.082;2024-03-08T09:33:37;27.93;;;18.53;;
5085;SDS011;4715;51.660;7.082;2024-03-08T09:36:13;26.20;;;16.60;;
5085;SDS011;4715;51.660;7.082;2024-03-08T09:38:35;26.70;;;17.40;;
5085;SDS011;4715;51.660;7.082;2024-03-08T09:40:56;27.50;;;16.90;;
5085;SDS011;4715;51.660;7.082;2024-03-08T09:43:19;25.20;;;18.00;;
5085;SDS011;4715;51.660;7.082;2024-03-08T09:45:42;28.33;;;18.30;;
5085;SDS011;4715;51.660;7.082;2024-03-08T09:48:07;29.03;;;19.63;;
5085;SDS011;4715;51.660;7.082;2024-03-08T09:50:32;20.60;;;16.23;;
5085;SDS011;4715;51.660;7.082;2024-03-08T09:52:57;25.57;;;16.87;;
5085;SDS011;4715;51.660;7.082;2024-03-08T09:55:19;24.80;;;17.17;;
5085;SDS011;4715;51.660;7.082;2024-03-08T09:57:43;20.50;;;14.90;;
5085;SDS011;4715;51.660;7.082;2024-03-08T10:00:27;26.40;;;17.00;;
5085;SDS011;4715;51.660;7.082;2024-03-08T10:02:50;23.77;;;16.33;;
5085;SDS011;4715;51.660;7.082;2024-03-08T10:05:13;22.47;;;16.60;;
5085;SDS011;4715;51.660;7.082;2024-03-08T10:07:37;24.10;;;16.10;;
5085;SDS011;4715;51.660;7.082;2024-03-08T10:10:01;23.20;;;16.30;;
5085;SDS011;4715;51.660;7.082;2024-03-08T10:12:28;23.67;;;14.20;;
5085;SDS011;4715;51.660;7.082;2024-03-08T10:14:51;22.37;;;15.50;;
5085;SDS011;4715;51.660;7.082;2024-03-08T10:17:16;22.40;;;15.60;;
5085;SDS011;4715;51.660;7.082;2024-03-08T10:19:48;24.70;;;15.97;;
5085;SDS011;4715;51.660;7.082;2024-03-08T10:22:14;20.10;;;14.93;;
5085;SDS011;4715;51.660;7.082;2024-03-08T10:24:36;21.90;;;15.83;;
5085;SDS011;4715;51.660;7.082;2024-03-08T10:27:01;21.00;;;15.40;;
5085;SDS011;4715;51.660;7.082;2024-03-08T10:29:25;25.00;;;15.43;;
5085;SDS011;4715;51.660;7.082;2024-03-08T10:31:48;18.00;;;12.63;;
5085;SDS011;4715;51.660;7.082;2024-03-08T10:34:11;19.23;;;14.63;;
5085;SDS011;4715;51.660;7.082;2024-03-08T10:36:33;22.97;;;15.23;;
5085;SDS011;4715;51.660;7.082;2024-03-08T10:38:58;19.43;;;14.23;;
5085;SDS011;4715;51.660;7.082;2024-03-08T10:41:32;17.70;;;13.33;;
5085;SDS011;4715;51.660;7.082;2024-03-08T10:44:06;18.23;;;14.20;;
5085;SDS011;4715;51.660;7.082;2024-03-08T10:46:41;18.90;;;13.73;;
5085;SDS011;4715;51.660;7.082;2024-03-08T10:49:18;20.50;;;14.90;;
5085;SDS011;4715;51.660;7.082;2024-03-08T10:51:54;25.60;;;15.67;;
5085;SDS011;4715;51.660;7.082;2024-03-08T10:54:20;20.53;;;14.20;;
5085;SDS011;4715;51.660;7.082;2024-03-08T10:56:45;21.83;;;15.00;;
5085;SDS011;4715;51.660;7.082;2024-03-08T10:59:12;20.30;;;14.63;;
5085;SDS011;4715;51.660;7.082;2024-03-08T11:01:36;18.63;;;14.17;;
5085;SDS011;4715;51.660;7.082;2024-03-08T11:03:58;20.37;;;14.97;;
5085;SDS011;4715;51.660;7.082;2024-03-08T11:06:30;20.97;;;14.67;;
5085;SDS011;4715;51.660;7.082;2024-03-08T11:09:03;23.83;;;15.43;;
5085;SDS011;4715;51.660;7.082;2024-03-08T11:11:33;30.13;;;17.57;;
5085;SDS011;4715;51.660;7.082;2024-03-08T11:13:58;22.07;;;16.17;;
5085;SDS011;4715;51.660;7.082;2024-03-08T11:19:05;20.67;;;15.13;;
5085;SDS011;4715;51.660;7.082;2024-03-08T11:21:44;20.30;;;14.57;;
5085;SDS011;4715;51.660;7.082;2024-03-08T11:24:07;20.03;;;14.83;;
5085;SDS011;4715;51.660;7.082;2024-03-08T11:26:33;20.63;;;15.67;;
5085;SDS011;4715;51.660;7.082;2024-03-08T11:28:56;19.60;;;14.17;;
5085;SDS011;4715;51.660;7.082;2024-03-08T11:32:04;21.83;;;16.00;;
5085;SDS011;4715;51.660;7.082;2024-03-08T11:34:28;23.00;;;14.73;;
5085;SDS011;4715;51.660;7.082;2024-03-08T11:36:52;23.97;;;15.90;;
5085;SDS011;4715;51.660;7.082;2024-03-08T11:39:16;20.53;;;14.30;;
5085;SDS011;4715;51.660;7.082;2024-03-08T11:41:39;19.10;;;14.03;;
5085;SDS011;4715;51.660;7.082;2024-03-08T11:44:02;23.53;;;15.40;;
5085;SDS011;4715;51.660;7.082;2024-03-08T11:46:31;27.77;;;16.60;;
5085;SDS011;4715;51.660;7.082;2024-03-08T11:48:55;32.97;;;16.20;;
5085;SDS011;4715;51.660;7.082;2024-03-08T11:51:17;25.83;;;17.50;;
5085;SDS011;4715;51.660;7.082;2024-03-08T11:53:40;20.53;;;15.57;;
5085;SDS011;4715;51.660;7.082;2024-03-08T11:56:06;19.70;;;15.20;;
5085;SDS011;4715;51.660;7.082;2024-03-08T11:58:28;19.50;;;13.80;;
5085;SDS011;4715;51.660;7.082;2024-03-08T12:00:50;19.13;;;13.10;;
5085;SDS011;4715;51.660;7.082;2024-03-08T12:03:13;21.23;;;16.13;;
5085;SDS011;4715;51.660;7.082;2024-03-08T12:05:36;17.10;;;12.97;;
5085;SDS011;4715;51.660;7.082;2024-03-08T12:07:58;16.93;;;13.83;;
5085;SDS011;4715;51.660;7.082;2024-03-08T12:10:21;17.40;;;13.20;;
5085;SDS011;4715;51.660;7.082;2024-03-08T12:12:47;21.80;;;16.23;;
5085;SDS011;4715;51.660;7.082;2024-03-08T12:15:11;21.67;;;14.53;;
5085;SDS011;4715;51.660;7.082;2024-03-08T12:17:33;19.83;;;15.67;;
5085;SDS011;4715;51.660;7.082;2024-03-08T12:19:56;18.03;;;13.70;;
5085;SDS011;4715;51.660;7.082;2024-03-08T12:22:21;17.50;;;13.40;;
5085;SDS011;4715;51.660;7.082;2024-03-08T12:25:02;20.00;;;14.80;;
5085;SDS011;4715;51.660;7.082;2024-03-08T12:27:25;20.00;;;12.93;;
5085;SDS011;4715;51.660;7.082;2024-03-08T12:29:49;22.63;;;13.70;;
5085;SDS011;4715;51.660;7.082;2024-03-08T12:32:12;20.43;;;14.90;;
5085;SDS011;4715;51.660;7.082;2024-03-08T12:34:34;22.60;;;14.63;;
5085;SDS011;4715;51.660;7.082;2024-03-08T12:36:58;18.77;;;14.53;;
5085;SDS011;4715;51.660;7.082;2024-03-08T12:39:23;19.70;;;14.60;;
5085;SDS011;4715;51.660;7.082;2024-03-08T12:41:46;17.90;;;13.53;;
5085;SDS011;4715;51.660;7.082;2024-03-08T12:44:11;17.30;;;12.53;;
5085;SDS011;4715;51.660;7.082;2024-03-08T12:46:33;19.93;;;14.40;;
5085;SDS011;4715;51.660;7.082;2024-03-08T12:48:55;20.37;;;15.33;;
5085;SDS011;4715;51.660;7.082;2024-03-08T12:51:17;20.10;;;13.93;;
5085;SDS011;4715;51.660;7.082;2024-03-08T12:53:44;19.13;;;13.40;;
5085;SDS011;4715;51.660;7.082;2024-03-08T12:56:28;18.67;;;13.10;;
5085;SDS011;4715;51.660;7.082;2024-03-08T12:58:51;16.07;;;13.60;;
5085;SDS011;4715;51.660;7.082;2024-03-08T13:01:13;19.37;;;13.80;;
5085;SDS011;4715;51.660;7.082;2024-03-08T13:03:35;16.80;;;12.43;;
5085;SDS011;4715;51.660;7.082;2024-03-08T13:05:57;16.00;;;12.43;;
5085;SDS011;4715;51.660;7.082;2024-03-08T13:08:20;18.20;;;12.50;;
5085;SDS011;4715;51.660;7.082;2024-03-08T13:10:44;16.10;;;12.63;;
5085;SDS011;4715;51.660;7.082;2024-03-08T13:13:08;16.27;;;12.27;;
5085;SDS011;4715;51.660;7.082;2024-03-08T13:15:31;19.73;;;13.40;;
5085;SDS011;4715;51.660;7.082;2024-03-08T13:17:54;17.63;;;12.97;;
5085;SDS011;4715;51.660;7.082;2024-03-08T13:20:17;14.40;;;10.27;;
5085;SDS011;4715;51.660;7.082;2024-03-08T13:22:39;13.80;;;10.53;;
5085;SDS011;4715;51.660;7.082;2024-03-08T13:25:04;14.30;;;10.87;;
5085;SDS011;4715;51.660;7.082;2024-03-08T13:27:33;17.10;;;12.07;;
5085;SDS011;4715;51.660;7.082;2024-03-08T13:29:58;16.03;;;10.93;;
5085;SDS011;4715;51.660;7.082;2024-03-08T13:32:20;17.23;;;10.33;;
5085;SDS011;4715;51.660;7.082;2024-03-08T13:34:44;13.30;;;11.27;;
5085;SDS011;4715;51.660;7.082;2024-03-08T13:37:07;15.30;;;11.27;;
5085;SDS011;4715;51.660;7.082;2024-03-08T13:39:30;18.30;;;12.50;;
5085;SDS011;4715;51.660;7.082;2024-03-08T13:42:00;13.43;;;11.10;;
5085;SDS011;4715;51.660;7.082;2024-03-08T13:44:22;13.80;;;11.40;;
5085;SDS011;4715;51.660;7.082;2024-03-08T13:46:47;14.70;;;11.70;;
5085;SDS011;4715;51.660;7.082;2024-03-08T13:49:11;12.73;;;10.90;;
5085;SDS011;4715;51.660;7.082;2024-03-08T13:51:34;19.40;;;13.70;;
5085;SDS011;4715;51.660;7.082;2024-03-08T13:53:55;15.83;;;11.93;;
5085;SDS011;4715;51.660;7.082;2024-03-08T13:56:17;14.70;;;10.73;;
5085;SDS011;4715;51.660;7.082;2024-03-08T13:58:41;15.57;;;12.83;;
5085;SDS011;4715;51.660;7.082;2024-03-08T14:01:04;14.37;;;12.70;;
5085;SDS011;4715;51.660;7.082;2024-03-08T14:03:32;18.37;;;13.73;;
5085;SDS011;4715;51.660;7.082;2024-03-08T14:05:54;17.33;;;13.17;;
5085;SDS011;4715;51.660;7.082;2024-03-08T14:08:17;17.47;;;13.20;;
5085;SDS011;4715;51.660;7.082;2024-03-08T14:10:39;13.67;;;11.73;;
5085;SDS011;4715;51.660;7.082;2024-03-08T14:13:02;14.93;;;12.10;;
5085;SDS011;4715;51.660;7.082;2024-03-08T14:15:24;15.40;;;12.40;;
5085;SDS011;4715;51.660;7.082;2024-03-08T14:17:51;15.40;;;11.77;;
5085;SDS011;4715;51.660;7.082;2024-03-08T14:20:15;14.60;;;11.70;;
5085;SDS011;4715;51.660;7.082;2024-03-08T14:22:37;19.20;;;13.10;;
5085;SDS011;4715;51.660;7.082;2024-03-08T14:24:59;17.50;;;13.90;;
5085;SDS011;4715;51.660;7.082;2024-03-08T14:27:22;17.30;;;13.67;;
5085;SDS011;4715;51.660;7.082;2024-03-08T14:29:47;14.60;;;11.30;;